sensor_id;sensor_type;location;lat;lon;timestamp;P1;P2;P0
67376;PMS7003;54261;46.086;6.588;2023-03-12T00:00:01;1.00;1.00;1.00
67376;PMS7003;54261;46.086;6.588;2023-03-12T00:05:08;1.00;1.00;1.00
67376;PMS7003;54261;46.086;6.588;2023-03-12T00:10:10;0.00;0.00;0.00
67376;PMS7003;54261;46.086;6.588;2023-03-12T00:15:12;4.67;1.33;1.00
67376;PMS7003;54261;46.086;6.588;2023-03-12T00:20:14;3.67;3.00;2.00
67376;PMS7003;54261;46.086;6.588;2023-03-12T00:25:16;3.67;3.67;3.00
67376;PMS7003;54261;46.086;6.588;2023-03-12T00:30:18;1.00;1.00;0.67
67376;PMS7003;54261;46.086;6.588;2023-03-12T00:35:20;0.00;0.00;0.00
67376;PMS7003;54261;46.086;6.588;2023-03-12T00:40:22;0.33;0.33;0.00
67376;PMS7003;54261;46.086;6.588;2023-03-12T00:45:24;10.00;9.00;7.00
67376;PMS7003;54261;46.086;6.588;2023-03-12T00:50:26;7.00;7.00;5.50
67376;PMS7003;54261;46.086;6.588;2023-03-12T00:55:27;9.00;8.50;7.00
67376;PMS7003;54261;46.086;6.588;2023-03-12T01:00:30;7.00;7.00;5.00
67376;PMS7003;54261;46.086;6.588;2023-03-12T01:05:32;7.25;6.00;5.00
67376;PMS7003;54261;46.086;6.588;2023-03-12T01:10:40;5.00;5.00;4.00
67376;PMS7003;54261;46.086;6.588;2023-03-12T01:15:42;3.75;3.75;3.00
67376;PMS7003;54261;46.086;6.588;2023-03-12T01:20:44;8.00;8.00;4.75
67376;PMS7003;54261;46.086;6.588;2023-03-12T01:25:47;6.50;4.25;3.50
67376;PMS7003;54261;46.086;6.588;2023-03-12T01:30:49;8.75;7.75;5.75
67376;PMS7003;54261;46.086;6.588;2023-03-12T01:35:51;5.50;4.75;4.00
67376;PMS7003;54261;46.086;6.588;2023-03-12T01:40:53;4.00;3.00;3.00
67376;PMS7003;54261;46.086;6.588;2023-03-12T01:51:08;8.25;5.75;5.00
67376;PMS7003;54261;46.086;6.588;2023-03-12T01:56:13;8.25;7.25;5.00
67376;PMS7003;54261;46.086;6.588;2023-03-12T02:01:18;8.00;8.00;5.50
67376;PMS7003;54261;46.086;6.588;2023-03-12T02:06:32;9.00;9.00;7.75
67376;PMS7003;54261;46.086;6.588;2023-03-12T02:11:38;8.50;5.50;4.00
67376;PMS7003;54261;46.086;6.588;2023-03-12T02:16:40;6.50;5.00;3.00
67376;PMS7003;54261;46.086;6.588;2023-03-12T02:21:43;2.00;2.00;1.50
67376;PMS7003;54261;46.086;6.588;2023-03-12T02:26:45;2.00;2.00;2.00
67376;PMS7003;54261;46.086;6.588;2023-03-12T02:31:49;9.25;8.00;6.00
67376;PMS7003;54261;46.086;6.588;2023-03-12T02:36:55;15.25;13.75;8.00
67376;PMS7003;54261;46.086;6.588;2023-03-12T02:41:56;1.00;1.00;1.00
67376;PMS7003;54261;46.086;6.588;2023-03-12T02:47:00;1.25;0.50;0.00
67376;PMS7003;54261;46.086;6.588;2023-03-12T02:52:03;1.00;1.00;1.00
67376;PMS7003;54261;46.086;6.588;2023-03-12T02:57:05;1.75;1.75;1.00
67376;PMS7003;54261;46.086;6.588;2023-03-12T03:02:08;1.00;1.00;1.00
67376;PMS7003;54261;46.086;6.588;2023-03-12T03:07:10;0.00;0.00;0.00
67376;PMS7003;54261;46.086;6.588;2023-03-12T03:12:12;0.00;0.00;0.00
67376;PMS7003;54261;46.086;6.588;2023-03-12T03:17:15;0.00;0.00;0.00
67376;PMS7003;54261;46.086;6.588;2023-03-12T03:22:18;0.00;0.00;0.00
67376;PMS7003;54261;46.086;6.588;2023-03-12T03:27:20;0.00;0.00;0.00
67376;PMS7003;54261;46.086;6.588;2023-03-12T03:32:22;0.00;0.00;0.00
67376;PMS7003;54261;46.086;6.588;2023-03-12T03:37:24;0.00;0.00;0.00
67376;PMS7003;54261;46.086;6.588;2023-03-12T03:42:27;0.00;0.00;0.00
67376;PMS7003;54261;46.086;6.588;2023-03-12T03:47:29;0.00;0.00;0.00
67376;PMS7003;54261;46.086;6.588;2023-03-12T03:52:31;0.00;0.00;0.00
67376;PMS7003;54261;46.086;6.588;2023-03-12T03:57:33;0.00;0.00;0.00
67376;PMS7003;54261;46.086;6.588;2023-03-12T04:02:35;0.00;0.00;0.00
67376;PMS7003;54261;46.086;6.588;2023-03-12T04:07:37;0.75;0.75;0.00
67376;PMS7003;54261;46.086;6.588;2023-03-12T04:12:39;0.00;0.00;0.00
67376;PMS7003;54261;46.086;6.588;2023-03-12T04:17:41;1.00;1.00;1.00
67376;PMS7003;54261;46.086;6.588;2023-03-12T04:22:44;2.50;1.25;1.00
67376;PMS7003;54261;46.086;6.588;2023-03-12T04:27:45;4.25;4.25;2.00
67376;PMS7003;54261;46.086;6.588;2023-03-12T04:32:47;10.50;6.50;3.50
67376;PMS7003;54261;46.086;6.588;2023-03-12T04:37:50;2.75;2.75;2.00
67376;PMS7003;54261;46.086;6.588;2023-03-12T04:42:52;2.50;2.50;2.00
67376;PMS7003;54261;46.086;6.588;2023-03-12T04:47:54;2.25;1.25;1.00
67376;PMS7003;54261;46.086;6.588;2023-03-12T04:52:56;2.50;2.00;1.00
67376;PMS7003;54261;46.086;6.588;2023-03-12T04:57:58;3.00;2.00;2.00
67376;PMS7003;54261;46.086;6.588;2023-03-12T05:03:00;3.00;3.00;2.00
67376;PMS7003;54261;46.086;6.588;2023-03-12T05:08:02;3.00;3.00;2.00
67376;PMS7003;54261;46.086;6.588;2023-03-12T05:13:40;2.75;1.75;1.00
67376;PMS7003;54261;46.086;6.588;2023-03-12T05:18:35;0.00;0.00;0.00
67376;PMS7003;54261;46.086;6.588;2023-03-12T05:23:37;0.00;0.00;0.00
67376;PMS7003;54261;46.086;6.588;2023-03-12T05:28:40;1.00;1.00;1.00
67376;PMS7003;54261;46.086;6.588;2023-03-12T05:33:42;1.00;1.00;1.00
67376;PMS7003;54261;46.086;6.588;2023-03-12T05:38:44;0.67;0.00;0.00
67376;PMS7003;54261;46.086;6.588;2023-03-12T05:43:48;0.67;0.67;0.00
67376;PMS7003;54261;46.086;6.588;2023-03-12T05:48:51;0.00;0.00;0.00
67376;PMS7003;54261;46.086;6.588;2023-03-12T05:53:54;0.00;0.00;0.00
67376;PMS7003;54261;46.086;6.588;2023-03-12T05:58:56;1.00;1.00;1.00
67376;PMS7003;54261;46.086;6.588;2023-03-12T06:03:59;0.00;0.00;0.00
67376;PMS7003;54261;46.086;6.588;2023-03-12T06:09:01;0.00;0.00;0.00
67376;PMS7003;54261;46.086;6.588;2023-03-12T06:14:04;0.00;0.00;0.00
67376;PMS7003;54261;46.086;6.588;2023-03-12T06:19:10;0.00;0.00;0.00
67376;PMS7003;54261;46.086;6.588;2023-03-12T06:24:16;0.00;0.00;0.00
67376;PMS7003;54261;46.086;6.588;2023-03-12T06:29:22;2.00;1.00;0.33
67376;PMS7003;54261;46.086;6.588;2023-03-12T06:34:24;0.33;0.33;0.33
67376;PMS7003;54261;46.086;6.588;2023-03-12T06:39:25;0.33;0.33;0.00
67376;PMS7003;54261;46.086;6.588;2023-03-12T06:44:27;2.00;2.00;1.00
67376;PMS7003;54261;46.086;6.588;2023-03-12T06:49:29;7.50;7.50;3.75
67376;PMS7003;54261;46.086;6.588;2023-03-12T06:54:33;2.00;2.00;1.33
67376;PMS7003;54261;46.086;6.588;2023-03-12T06:59:35;3.00;2.67;2.00
67376;PMS7003;54261;46.086;6.588;2023-03-12T07:04:37;0.33;0.33;0.00
67376;PMS7003;54261;46.086;6.588;2023-03-12T07:09:39;0.00;0.00;0.00
67376;PMS7003;54261;46.086;6.588;2023-03-12T07:14:40;0.75;0.75;0.75
67376;PMS7003;54261;46.086;6.588;2023-03-12T07:19:42;3.25;3.25;3.00
67376;PMS7003;54261;46.086;6.588;2023-03-12T07:24:44;4.00;3.25;2.00
67376;PMS7003;54261;46.086;6.588;2023-03-12T07:29:46;0.25;0.00;0.00
67376;PMS7003;54261;46.086;6.588;2023-03-12T07:34:48;0.25;0.25;0.00
67376;PMS7003;54261;46.086;6.588;2023-03-12T07:39:49;1.00;1.00;0.00
67376;PMS7003;54261;46.086;6.588;2023-03-12T07:44:53;0.00;0.00;0.00
67376;PMS7003;54261;46.086;6.588;2023-03-12T07:49:55;0.00;0.00;0.00
67376;PMS7003;54261;46.086;6.588;2023-03-12T07:54:57;2.00;1.00;1.00
67376;PMS7003;54261;46.086;6.588;2023-03-12T07:59:59;2.25;1.00;1.00
67376;PMS7003;54261;46.086;6.588;2023-03-12T08:05:01;1.50;1.50;1.00
67376;PMS7003;54261;46.086;6.588;2023-03-12T08:10:04;0.25;0.25;0.25
67376;PMS7003;54261;46.086;6.588;2023-03-12T08:15:08;1.00;1.00;1.00
67376;PMS7003;54261;46.086;6.588;2023-03-12T08:20:13;1.50;1.50;1.00
67376;PMS7003;54261;46.086;6.588;2023-03-12T08:25:15;3.00;3.00;2.75
67376;PMS7003;54261;46.086;6.588;2023-03-12T08:30:19;1.50;1.50;1.00
67376;PMS7003;54261;46.086;6.588;2023-03-12T08:35:21;1.50;1.50;1.25
67376;PMS7003;54261;46.086;6.588;2023-03-12T08:40:23;1.75;1.00;1.00
67376;PMS7003;54261;46.086;6.588;2023-03-12T08:45:25;1.75;1.75;1.50
67376;PMS7003;54261;46.086;6.588;2023-03-12T08:50:26;1.50;1.50;1.00
67376;PMS7003;54261;46.086;6.588;2023-03-12T08:55:29;2.00;1.00;0.50
67376;PMS7003;54261;46.086;6.588;2023-03-12T09:00:31;1.00;1.00;1.00
67376;PMS7003;54261;46.086;6.588;2023-03-12T09:05:33;1.25;1.25;1.00
67376;PMS7003;54261;46.086;6.588;2023-03-12T09:10:35;1.33;1.00;1.00
67376;PMS7003;54261;46.086;6.588;2023-03-12T09:15:37;11.25;9.00;7.75
67376;PMS7003;54261;46.086;6.588;2023-03-12T09:20:40;1.00;1.00;1.00
67376;PMS7003;54261;46.086;6.588;2023-03-12T09:25:46;4.00;4.00;3.75
67376;PMS7003;54261;46.086;6.588;2023-03-12T09:30:48;9.50;9.50;7.75
67376;PMS7003;54261;46.086;6.588;2023-03-12T09:35:57;0.00;0.00;0.00
67376;PMS7003;54261;46.086;6.588;2023-03-12T09:41:00;2.67;1.33;1.00
67376;PMS7003;54261;46.086;6.588;2023-03-12T09:46:08;1.00;1.00;1.00
67376;PMS7003;54261;46.086;6.588;2023-03-12T09:51:19;6.00;6.00;4.00
67376;PMS7003;54261;46.086;6.588;2023-03-12T09:56:25;5.25;3.25;2.00
67376;PMS7003;54261;46.086;6.588;2023-03-12T10:01:35;3.00;3.00;1.75
67376;PMS7003;54261;46.086;6.588;2023-03-12T10:28:13;2.00;0.00;0.00
67376;PMS7003;54261;46.086;6.588;2023-03-12T10:33:19;0.00;0.00;0.00
67376;PMS7003;54261;46.086;6.588;2023-03-12T10:38:26;2.00;2.00;2.00
67376;PMS7003;54261;46.086;6.588;2023-03-12T10:43:30;0.00;0.00;0.00
67376;PMS7003;54261;46.086;6.588;2023-03-12T10:48:35;1.00;0.00;0.00
67376;PMS7003;54261;46.086;6.588;2023-03-12T10:53:43;0.33;0.00;0.00
67376;PMS7003;54261;46.086;6.588;2023-03-12T10:58:49;0.00;0.00;0.00
67376;PMS7003;54261;46.086;6.588;2023-03-12T11:04:07;0.00;0.00;0.00
67376;PMS7003;54261;46.086;6.588;2023-03-12T11:09:19;0.00;0.00;0.00
67376;PMS7003;54261;46.086;6.588;2023-03-12T11:14:25;0.00;0.00;0.00
67376;PMS7003;54261;46.086;6.588;2023-03-12T11:19:30;0.00;0.00;0.00
67376;PMS7003;54261;46.086;6.588;2023-03-12T11:24:33;1.00;1.00;1.00
67376;PMS7003;54261;46.086;6.588;2023-03-12T11:29:42;0.00;0.00;0.00
67376;PMS7003;54261;46.086;6.588;2023-03-12T11:34:47;1.00;1.00;0.00
67376;PMS7003;54261;46.086;6.588;2023-03-12T12:02:07;2.00;2.00;1.50
67376;PMS7003;54261;46.086;6.588;2023-03-12T12:23:27;2.00;2.00;1.67
67376;PMS7003;54261;46.086;6.588;2023-03-12T12:44:48;2.00;0.67;0.67
67376;PMS7003;54261;46.086;6.588;2023-03-12T12:49:53;1.00;0.00;0.00
67376;PMS7003;54261;46.086;6.588;2023-03-12T12:55:41;1.33;0.00;0.00
67376;PMS7003;54261;46.086;6.588;2023-03-12T13:00:32;0.00;0.00;0.00
67376;PMS7003;54261;46.086;6.588;2023-03-12T13:10:53;0.33;0.33;0.00
67376;PMS7003;54261;46.086;6.588;2023-03-12T13:32:04;0.67;0.67;0.00
67376;PMS7003;54261;46.086;6.588;2023-03-12T13:43:12;0.00;0.00;0.00
67376;PMS7003;54261;46.086;6.588;2023-03-12T13:48:17;0.00;0.00;0.00
67376;PMS7003;54261;46.086;6.588;2023-03-12T13:53:22;0.00;0.00;0.00
67376;PMS7003;54261;46.086;6.588;2023-03-12T13:58:27;0.00;0.00;0.00
67376;PMS7003;54261;46.086;6.588;2023-03-12T14:03:40;0.00;0.00;0.00
67376;PMS7003;54261;46.086;6.588;2023-03-12T14:19:22;0.00;0.00;0.00
67376;PMS7003;54261;46.086;6.588;2023-03-12T14:24:34;0.00;0.00;0.00
67376;PMS7003;54261;46.086;6.588;2023-03-12T14:29:41;0.00;0.00;0.00
67376;PMS7003;54261;46.086;6.588;2023-03-12T14:40:00;0.00;0.00;0.00
67376;PMS7003;54261;46.086;6.588;2023-03-12T14:45:11;0.00;0.00;0.00
67376;PMS7003;54261;46.086;6.588;2023-03-12T14:50:57;0.00;0.00;0.00
67376;PMS7003;54261;46.086;6.588;2023-03-12T14:55:41;0.00;0.00;0.00
67376;PMS7003;54261;46.086;6.588;2023-03-12T15:00:43;0.33;0.00;0.00
67376;PMS7003;54261;46.086;6.588;2023-03-12T15:05:46;0.00;0.00;0.00
67376;PMS7003;54261;46.086;6.588;2023-03-12T15:10:50;0.00;0.00;0.00
67376;PMS7003;54261;46.086;6.588;2023-03-12T15:15:55;0.00;0.00;0.00
67376;PMS7003;54261;46.086;6.588;2023-03-12T15:21:00;0.00;0.00;0.00
67376;PMS7003;54261;46.086;6.588;2023-03-12T15:31:20;0.00;0.00;0.00
67376;PMS7003;54261;46.086;6.588;2023-03-12T15:36:23;0.00;0.00;0.00
67376;PMS7003;54261;46.086;6.588;2023-03-12T15:41:34;0.00;0.00;0.00
67376;PMS7003;54261;46.086;6.588;2023-03-12T15:46:44;0.00;0.00;0.00
67376;PMS7003;54261;46.086;6.588;2023-03-12T15:52:03;0.00;0.00;0.00
67376;PMS7003;54261;46.086;6.588;2023-03-12T15:57:22;0.00;0.00;0.00
67376;PMS7003;54261;46.086;6.588;2023-03-12T16:02:35;0.00;0.00;0.00
67376;PMS7003;54261;46.086;6.588;2023-03-12T16:07:38;0.00;0.00;0.00
67376;PMS7003;54261;46.086;6.588;2023-03-12T16:12:41;0.00;0.00;0.00
67376;PMS7003;54261;46.086;6.588;2023-03-12T16:17:44;1.00;1.00;0.00
67376;PMS7003;54261;46.086;6.588;2023-03-12T16:22:46;2.00;2.00;2.00
67376;PMS7003;54261;46.086;6.588;2023-03-12T16:27:52;0.33;0.33;0.00
67376;PMS7003;54261;46.086;6.588;2023-03-12T16:32:57;1.00;1.00;1.00
67376;PMS7003;54261;46.086;6.588;2023-03-12T16:38:01;0.00;0.00;0.00
67376;PMS7003;54261;46.086;6.588;2023-03-12T16:43:04;1.67;0.00;0.00
67376;PMS7003;54261;46.086;6.588;2023-03-12T16:48:19;0.00;0.00;0.00
67376;PMS7003;54261;46.086;6.588;2023-03-12T16:53:27;1.00;1.00;1.00
67376;PMS7003;54261;46.086;6.588;2023-03-12T16:58:28;0.00;0.00;0.00
67376;PMS7003;54261;46.086;6.588;2023-03-12T17:03:32;0.67;0.00;0.00
67376;PMS7003;54261;46.086;6.588;2023-03-12T17:08:38;0.00;0.00;0.00
67376;PMS7003;54261;46.086;6.588;2023-03-12T17:13:40;0.00;0.00;0.00
67376;PMS7003;54261;46.086;6.588;2023-03-12T17:18:43;0.00;0.00;0.00
67376;PMS7003;54261;46.086;6.588;2023-03-12T17:23:46;1.00;1.00;0.00
67376;PMS7003;54261;46.086;6.588;2023-03-12T17:28:50;0.00;0.00;0.00
67376;PMS7003;54261;46.086;6.588;2023-03-12T17:33:52;0.00;0.00;0.00
67376;PMS7003;54261;46.086;6.588;2023-03-12T17:38:54;0.33;0.33;0.00
67376;PMS7003;54261;46.086;6.588;2023-03-12T17:43:56;0.00;0.00;0.00
67376;PMS7003;54261;46.086;6.588;2023-03-12T17:49:02;0.00;0.00;0.00
67376;PMS7003;54261;46.086;6.588;2023-03-12T17:54:04;0.00;0.00;0.00
67376;PMS7003;54261;46.086;6.588;2023-03-12T17:59:06;1.00;1.00;1.00
67376;PMS7003;54261;46.086;6.588;2023-03-12T18:04:07;0.67;0.33;0.00
67376;PMS7003;54261;46.086;6.588;2023-03-12T18:09:09;1.00;1.00;0.00
67376;PMS7003;54261;46.086;6.588;2023-03-12T18:14:11;0.00;0.00;0.00
67376;PMS7003;54261;46.086;6.588;2023-03-12T18:19:13;1.00;1.00;1.00
67376;PMS7003;54261;46.086;6.588;2023-03-12T18:24:15;0.00;0.00;0.00
67376;PMS7003;54261;46.086;6.588;2023-03-12T18:29:16;1.00;1.00;0.00
67376;PMS7003;54261;46.086;6.588;2023-03-12T18:34:18;0.67;0.67;0.00
67376;PMS7003;54261;46.086;6.588;2023-03-12T18:39:21;0.00;0.00;0.00
67376;PMS7003;54261;46.086;6.588;2023-03-12T18:44:23;0.00;0.00;0.00
67376;PMS7003;54261;46.086;6.588;2023-03-12T18:49:25;0.00;0.00;0.00
67376;PMS7003;54261;46.086;6.588;2023-03-12T18:54:26;0.00;0.00;0.00
67376;PMS7003;54261;46.086;6.588;2023-03-12T18:59:28;1.00;0.00;0.00
67376;PMS7003;54261;46.086;6.588;2023-03-12T19:04:32;0.00;0.00;0.00
67376;PMS7003;54261;46.086;6.588;2023-03-12T19:09:34;0.00;0.00;0.00
67376;PMS7003;54261;46.086;6.588;2023-03-12T19:14:36;0.67;0.67;0.00
67376;PMS7003;54261;46.086;6.588;2023-03-12T19:19:38;2.00;2.00;1.00
67376;PMS7003;54261;46.086;6.588;2023-03-12T19:24:41;2.67;1.33;1.00
67376;PMS7003;54261;46.086;6.588;2023-03-12T19:29:43;0.00;0.00;0.00
67376;PMS7003;54261;46.086;6.588;2023-03-12T19:34:45;1.00;1.00;1.00
67376;PMS7003;54261;46.086;6.588;2023-03-12T19:39:52;2.00;1.00;1.00
67376;PMS7003;54261;46.086;6.588;2023-03-12T19:44:54;3.75;3.75;3.25
67376;PMS7003;54261;46.086;6.588;2023-03-12T19:49:56;1.00;1.00;0.33
67376;PMS7003;54261;46.086;6.588;2023-03-12T19:54:57;2.00;1.00;1.00
67376;PMS7003;54261;46.086;6.588;2023-03-12T20:00:06;8.25;5.00;4.00
67376;PMS7003;54261;46.086;6.588;2023-03-12T20:05:10;4.25;3.75;3.25
67376;PMS7003;54261;46.086;6.588;2023-03-12T20:10:13;5.00;5.00;4.00
67376;PMS7003;54261;46.086;6.588;2023-03-12T20:15:15;3.00;1.25;1.00
67376;PMS7003;54261;46.086;6.588;2023-03-12T20:20:16;5.25;5.25;3.00
67376;PMS7003;54261;46.086;6.588;2023-03-12T20:25:19;3.00;3.00;2.00
67376;PMS7003;54261;46.086;6.588;2023-03-12T20:30:22;0.00;0.00;0.00
67376;PMS7003;54261;46.086;6.588;2023-03-12T20:35:24;1.00;1.00;0.00
67376;PMS7003;54261;46.086;6.588;2023-03-12T20:40:26;5.00;4.00;2.25
67376;PMS7003;54261;46.086;6.588;2023-03-12T20:45:28;1.25;1.00;0.75
67376;PMS7003;54261;46.086;6.588;2023-03-12T20:50:30;2.75;1.00;1.00
67376;PMS7003;54261;46.086;6.588;2023-03-12T20:55:32;0.00;0.00;0.00
67376;PMS7003;54261;46.086;6.588;2023-03-12T21:00:34;0.00;0.00;0.00
67376;PMS7003;54261;46.086;6.588;2023-03-12T21:05:36;0.00;0.00;0.00
67376;PMS7003;54261;46.086;6.588;2023-03-12T21:10:37;0.00;0.00;0.00
67376;PMS7003;54261;46.086;6.588;2023-03-12T21:15:39;1.00;0.00;0.00
67376;PMS7003;54261;46.086;6.588;2023-03-12T21:20:41;0.00;0.00;0.00
67376;PMS7003;54261;46.086;6.588;2023-03-12T21:25:43;0.00;0.00;0.00
67376;PMS7003;54261;46.086;6.588;2023-03-12T21:30:44;0.00;0.00;0.00
67376;PMS7003;54261;46.086;6.588;2023-03-12T21:35:46;1.00;0.00;0.00
67376;PMS7003;54261;46.086;6.588;2023-03-12T21:40:48;0.00;0.00;0.00
67376;PMS7003;54261;46.086;6.588;2023-03-12T21:45:50;3.00;3.00;1.00
67376;PMS7003;54261;46.086;6.588;2023-03-12T21:50:52;3.00;1.00;0.00
67376;PMS7003;54261;46.086;6.588;2023-03-12T21:55:55;0.00;0.00;0.00
67376;PMS7003;54261;46.086;6.588;2023-03-12T22:01:11;0.00;0.00;0.00
67376;PMS7003;54261;46.086;6.588;2023-03-12T22:06:15;0.00;0.00;0.00
67376;PMS7003;54261;46.086;6.588;2023-03-12T22:11:17;0.00;0.00;0.00
67376;PMS7003;54261;46.086;6.588;2023-03-12T22:16:19;0.00;0.00;0.00
67376;PMS7003;54261;46.086;6.588;2023-03-12T22:21:21;1.00;0.00;0.00
67376;PMS7003;54261;46.086;6.588;2023-03-12T22:26:24;0.00;0.00;0.00
67376;PMS7003;54261;46.086;6.588;2023-03-12T22:31:27;0.00;0.00;0.00
67376;PMS7003;54261;46.086;6.588;2023-03-12T22:36:30;0.00;0.00;0.00
67376;PMS7003;54261;46.086;6.588;2023-03-12T22:41:32;2.00;2.00;1.00
67376;PMS7003;54261;46.086;6.588;2023-03-12T22:46:34;0.00;0.00;0.00
67376;PMS7003;54261;46.086;6.588;2023-03-12T22:51:36;1.00;1.00;0.00
67376;PMS7003;54261;46.086;6.588;2023-03-12T22:56:38;1.50;1.00;1.00
67376;PMS7003;54261;46.086;6.588;2023-03-12T23:01:40;0.00;0.00;0.00
67376;PMS7003;54261;46.086;6.588;2023-03-12T23:06:42;0.00;0.00;0.00
67376;PMS7003;54261;46.086;6.588;2023-03-12T23:11:44;1.00;1.00;0.00
67376;PMS7003;54261;46.086;6.588;2023-03-12T23:16:46;0.50;0.00;0.00
67376;PMS7003;54261;46.086;6.588;2023-03-12T23:21:48;0.00;0.00;0.00
67376;PMS7003;54261;46.086;6.588;2023-03-12T23:26:50;0.00;0.00;0.00
67376;PMS7003;54261;46.086;6.588;2023-03-12T23:31:51;0.00;0.00;0.00
67376;PMS7003;54261;46.086;6.588;2023-03-12T23:36:53;0.00;0.00;0.00
67376;PMS7003;54261;46.086;6.588;2023-03-12T23:41:55;0.00;0.00;0.00
67376;PMS7003;54261;46.086;6.588;2023-03-12T23:46:58;0.00;0.00;0.00
67376;PMS7003;54261;46.086;6.588;2023-03-12T23:52:00;0.00;0.00;0.00
67376;PMS7003;54261;46.086;6.588;2023-03-12T23:57:02;1.00;0.00;0.00
